Time;durP1;ratioP1;P1;durP2;ratioP2;P2;SDS_P1;SDS_P2;PMS_P1;PMS_P2;Temp;Humidity;BMP_temperature;BMP_pressure;BME280_temperature;BME280_humidity;BME280_pressure;Samples;Min_cycle;Max_cycle;Signal;HPM_P1;HPM_P2
2022/01/08 00:00:14;;;;;;;5.03;1.80;;;5.20;99.90;;;;;;5045714;28;20455;-71
2022/01/08 00:02:41;;;;;;;2.57;1.80;;;5.20;99.90;;;;;;5043168;28;20177;-71
2022/01/08 00:05:07;;;;;;;3.77;2.03;;;5.50;99.90;;;;;;5043213;28;20524;-72
2022/01/08 00:07:32;;;;;;;3.50;1.90;;;5.20;99.90;;;;;;5055055;28;20423;-71
2022/01/08 00:09:58;;;;;;;2.10;1.90;;;5.20;99.90;;;;;;5045901;28;20416;-71
2022/01/08 00:12:24;;;;;;;3.77;2.00;;;5.20;99.90;;;;;;5029870;28;20186;-71
2022/01/08 00:14:50;;;;;;;2.50;1.80;;;5.20;99.90;;;;;;5028888;28;20224;-72
2022/01/08 00:17:15;;;;;;;1.90;1.70;;;6.60;99.90;;;;;;5028174;28;20506;-72
2022/01/08 00:19:41;;;;;;;3.37;2.13;;;5.20;99.90;;;;;;5029046;28;20220;-71
2022/01/08 00:22:08;;;;;;;2.30;2.10;;;5.20;99.90;;;;;;5047904;28;20185;-71
2022/01/08 00:24:34;;;;;;;2.87;1.80;;;5.20;99.90;;;;;;5032356;28;20177;-72
2022/01/08 00:26:59;;;;;;;3.53;1.77;;;5.20;99.90;;;;;;5031792;28;20806;-71
2022/01/08 00:29:25;;;;;;;2.70;2.00;;;5.20;99.90;;;;;;5038412;28;20237;-71
2022/01/08 00:31:50;;;;;;;3.33;1.90;;;5.10;99.90;;;;;;5041424;28;20181;-71
2022/01/08 00:34:16;;;;;;;2.57;1.73;;;5.00;99.90;;;;;;5048050;28;20201;-71
2022/01/08 00:36:41;;;;;;;2.40;1.63;;;5.10;99.90;;;;;;5052338;28;20179;-71
2022/01/08 00:39:07;;;;;;;2.10;1.90;;;5.00;99.90;;;;;;5063469;28;20539;-71
2022/01/08 00:41:32;;;;;;;1.83;1.70;;;5.00;99.90;;;;;;5049348;28;20180;-71
2022/01/08 00:43:58;;;;;;;3.70;2.30;;;5.00;99.90;;;;;;5045009;28;20505;-71
2022/01/08 00:46:24;;;;;;;4.27;2.30;;;5.00;99.90;;;;;;5031428;28;20201;-71
2022/01/08 00:48:49;;;;;;;3.30;2.53;;;5.10;99.90;;;;;;5034082;28;20181;-72
2022/01/08 00:51:15;;;;;;;4.37;2.80;;;4.90;99.90;;;;;;5050748;28;20223;-71
2022/01/08 00:53:40;;;;;;;4.43;2.50;;;4.90;99.90;;;;;;5049735;28;20659;-71
2022/01/08 00:56:06;;;;;;;3.80;2.80;;;4.80;99.90;;;;;;5051171;28;20599;-72
2022/01/08 00:58:32;;;;;;;3.80;2.70;;;4.80;99.90;;;;;;5039308;28;20266;-72
2022/01/08 01:00:58;;;;;;;11.90;2.00;;;4.70;99.90;;;;;;5043503;28;20268;-72
2022/01/08 01:03:23;;;;;;;1.87;1.63;;;4.70;99.90;;;;;;5050595;28;20670;-73
2022/01/08 01:05:49;;;;;;;5.50;1.90;;;4.70;99.90;;;;;;5061544;28;20211;-71
2022/01/08 01:08:15;;;;;;;3.97;1.90;;;4.60;99.90;;;;;;5049358;28;20516;-71
2022/01/08 01:10:40;;;;;;;2.13;1.60;;;4.60;99.90;;;;;;5050307;28;20614;-71
2022/01/08 01:13:06;;;;;;;2.83;1.97;;;4.60;99.90;;;;;;5049431;28;20177;-71
2022/01/08 01:15:32;;;;;;;1.60;1.50;;;4.60;99.90;;;;;;5047808;28;20209;-71
2022/01/08 01:17:57;;;;;;;3.70;1.80;;;4.90;99.90;;;;;;5050571;28;20508;-71
2022/01/08 01:20:23;;;;;;;2.40;1.70;;;4.60;99.90;;;;;;5033338;28;20880;-71
2022/01/08 01:25:28;;;;;;;2.33;1.70;;;4.80;99.90;;;;;;5047119;28;20651;-71
2022/01/08 01:30:29;;;;;;;2.43;1.83;;;4.90;99.90;;;;;;5042437;28;20427;-71
2022/01/08 01:41:34;;;;;;;3.10;1.90;;;4.60;99.90;;;;;;5030411;28;20482;-72
2022/01/08 01:49:17;;;;;;;3.10;1.90;;;4.60;99.90;;;;;;5034770;28;21059;-72
2022/01/08 01:51:43;;;;;;;2.13;1.70;;;4.70;99.90;;;;;;5034321;28;20423;-71
2022/01/08 01:54:08;;;;;;;2.40;1.80;;;4.90;99.90;;;;;;5044186;28;20236;-70
2022/01/08 01:56:35;;;;;;;3.80;2.20;;;4.60;99.90;;;;;;5047773;28;20271;-72
2022/01/08 01:59:00;;;;;;;2.07;1.67;;;4.60;99.90;;;;;;5044127;28;20229;-71
2022/01/08 02:01:26;;;;;;;2.30;2.10;;;5.00;99.90;;;;;;5046326;28;21154;-71
2022/01/08 02:03:53;;;;;;;5.93;1.80;;;4.90;99.90;;;;;;5048754;28;20204;-71
2022/01/08 02:06:19;;;;;;;3.07;1.70;;;4.70;99.90;;;;;;5062725;28;20224;-71
2022/01/08 02:08:44;;;;;;;3.10;1.67;;;4.70;99.90;;;;;;5047064;28;20810;-72
2022/01/08 02:11:10;;;;;;;3.50;2.10;;;4.90;99.90;;;;;;5044125;28;20185;-71
2022/01/08 02:13:36;;;;;;;2.27;1.67;;;4.40;99.90;;;;;;5049125;28;20696;-72
2022/01/08 02:16:04;;;;;;;4.10;1.80;;;4.20;99.90;;;;;;5029815;28;20263;-71
2022/01/08 02:18:30;;;;;;;5.17;2.00;;;4.10;99.90;;;;;;5042115;28;20794;-72
2022/01/08 02:20:57;;;;;;;2.00;1.63;;;4.00;99.90;;;;;;5041782;28;20421;-71
2022/01/08 02:23:23;;;;;;;2.43;1.90;;;3.90;99.90;;;;;;5035669;28;20189;-72
2022/01/08 02:25:49;;;;;;;2.40;1.80;;;4.00;99.90;;;;;;5030646;28;20506;-71
2022/01/08 02:28:15;;;;;;;3.03;1.93;;;3.80;99.90;;;;;;5029580;28;20209;-71
2022/01/08 02:30:41;;;;;;;2.80;1.60;;;3.80;99.90;;;;;;5034784;28;20420;-71
2022/01/08 02:33:06;;;;;;;4.10;1.90;;;3.80;99.90;;;;;;5042885;28;20269;-71
2022/01/08 02:35:33;;;;;;;2.80;2.20;;;3.80;99.90;;;;;;5048786;28;20203;-72
2022/01/08 02:37:59;;;;;;;2.83;1.80;;;3.80;99.90;;;;;;5052455;28;20623;-71
2022/01/08 02:40:25;;;;;;;2.77;1.60;;;3.80;99.90;;;;;;5035346;28;20459;-71
2022/01/08 02:43:00;;;;;;;2.47;1.90;;;3.80;99.90;;;;;;5028547;28;20162;-72
2022/01/08 02:45:27;;;;;;;2.60;2.03;;;3.80;99.90;;;;;;5030633;28;20274;-71
2022/01/08 02:47:54;;;;;;;5.37;1.90;;;3.80;99.90;;;;;;5039107;28;20830;-72
2022/01/08 02:50:20;;;;;;;3.80;1.80;;;3.70;99.90;;;;;;5037808;28;20432;-71
2022/01/08 02:52:46;;;;;;;3.23;2.07;;;3.70;99.90;;;;;;5028641;28;20420;-71
2022/01/08 02:55:20;;;;;;;8.50;1.87;;;3.70;99.90;;;;;;5038231;28;21029;-71
2022/01/08 02:57:46;;;;;;;3.30;2.30;;;3.80;99.90;;;;;;5034180;28;21022;-71
2022/01/08 03:00:14;;;;;;;3.10;2.60;;;4.20;99.90;;;;;;5031115;28;20559;-72
2022/01/08 03:02:48;;;;;;;3.83;1.90;;;3.70;99.90;;;;;;5033764;28;20831;-72
2022/01/08 03:05:14;;;;;;;3.47;2.13;;;3.60;99.90;;;;;;5046011;28;20597;-71
2022/01/08 03:07:42;;;;;;;4.30;1.93;;;3.60;99.90;;;;;;5054431;28;20977;-71
2022/01/08 03:10:10;;;;;;;2.40;1.80;;;3.50;99.90;;;;;;5046597;28;20453;-72
2022/01/08 03:12:41;;;;;;;2.77;2.40;;;3.40;99.90;;;;;;5048360;28;20462;-71
2022/01/08 03:15:07;;;;;;;2.60;1.90;;;3.40;99.90;;;;;;5047189;28;20462;-71
2022/01/08 03:17:32;;;;;;;4.23;2.23;;;3.40;99.90;;;;;;5048590;28;20481;-71
2022/01/08 03:20:04;;;;;;;4.07;2.07;;;3.40;99.90;;;;;;5036671;28;20448;-71
2022/01/08 03:22:30;;;;;;;6.73;2.27;;;3.80;99.90;;;;;;5046725;28;20166;-71
2022/01/08 03:24:56;;;;;;;3.87;2.33;;;3.80;99.90;;;;;;5031995;28;20433;-71
2022/01/08 03:27:21;;;;;;;3.40;2.30;;;3.40;99.90;;;;;;5028060;28;20753;-71
2022/01/08 03:29:47;;;;;;;5.07;2.20;;;3.90;99.90;;;;;;5040413;28;20190;-71
2022/01/08 03:32:12;;;;;;;2.87;2.30;;;3.40;99.90;;;;;;5028514;28;20272;-71
2022/01/08 03:34:38;;;;;;;5.57;2.57;;;3.40;99.90;;;;;;5043804;28;20292;-71
2022/01/08 03:37:03;;;;;;;4.97;2.67;;;3.50;99.90;;;;;;5057620;28;20177;-71
2022/01/08 03:39:29;;;;;;;5.73;2.30;;;3.50;99.90;;;;;;5034971;28;20197;-71
2022/01/08 03:41:55;;;;;;;2.87;2.10;;;3.60;99.90;;;;;;5026671;28;20600;-71
2022/01/08 03:44:21;;;;;;;4.83;2.40;;;3.50;99.90;;;;;;5029653;28;20182;-71
2022/01/08 03:46:46;;;;;;;4.03;2.33;;;4.10;99.90;;;;;;5029010;28;20743;-72
2022/01/08 03:49:23;;;;;;;4.70;2.33;;;3.60;99.90;;;;;;5035944;28;20181;-71
2022/01/08 03:51:50;;;;;;;5.60;2.50;;;3.50;99.90;;;;;;5048268;28;20633;-71
2022/01/08 03:54:16;;;;;;;3.33;2.00;;;;;;;;;;5040875;28;20421;-71
2022/01/08 03:56:42;;;;;;;6.60;2.50;;;3.30;99.90;;;;;;5047763;28;20956;-71
2022/01/08 03:59:07;;;;;;;6.53;2.63;;;3.30;99.90;;;;;;5041636;28;20464;-71
2022/01/08 04:01:33;;;;;;;3.13;1.93;;;3.30;99.90;;;;;;5045648;28;20191;-71
2022/01/08 04:03:58;;;;;;;3.70;1.90;;;3.30;99.90;;;;;;5041132;28;20674;-71
2022/01/08 04:06:24;;;;;;;2.50;1.77;;;3.40;99.90;;;;;;5055079;28;20252;-71
2022/01/08 04:08:56;;;;;;;3.50;1.63;;;3.70;99.90;;;;;;5044520;28;20182;-71
2022/01/08 04:11:22;;;;;;;2.27;2.00;;;3.60;99.90;;;;;;5026570;28;20205;-71
2022/01/08 04:13:48;;;;;;;1.40;1.30;;;;;;;;;;5027560;28;20440;-71
2022/01/08 04:16:19;;;;;;;2.50;1.60;;;3.70;99.90;;;;;;5028192;28;20464;-71
2022/01/08 04:18:44;;;;;;;1.77;1.67;;;3.80;99.90;;;;;;5028662;28;20174;-71
2022/01/08 04:23:51;;;;;;;4.40;1.60;;;3.90;99.90;;;;;;5028525;28;20632;-71
2022/01/08 04:26:16;;;;;;;2.10;1.90;;;4.00;99.90;;;;;;5047660;28;20430;-71
2022/01/08 04:28:42;;;;;;;1.60;1.50;;;;;;;;;;5044018;28;20247;-71
2022/01/08 04:31:08;;;;;;;3.20;1.57;;;4.00;99.90;;;;;;5042166;28;20554;-71
2022/01/08 04:33:33;;;;;;;2.63;2.10;;;4.40;99.90;;;;;;5045503;28;20427;-71
2022/01/08 04:35:59;;;;;;;1.90;1.80;;;4.00;99.90;;;;;;5052729;28;20566;-72
2022/01/08 04:38:24;;;;;;;2.20;1.80;;;4.10;99.90;;;;;;5046987;28;20181;-71
2022/01/08 04:40:50;;;;;;;3.93;2.00;;;4.10;99.90;;;;;;5028162;28;20244;-71
2022/01/08 04:43:15;;;;;;;2.10;1.90;;;4.10;99.90;;;;;;5026392;28;20645;-71
2022/01/08 04:45:42;;;;;;;2.63;1.60;;;4.50;99.90;;;;;;5026927;28;20284;-71
2022/01/08 04:48:08;;;;;;;1.93;1.50;;;4.10;99.90;;;;;;5028039;28;20596;-71
2022/01/08 04:50:33;;;;;;;1.90;1.80;;;4.30;99.90;;;;;;5045655;28;20446;-71
2022/01/08 04:52:59;;;;;;;1.90;1.53;;;3.90;99.90;;;;;;5044146;28;20174;-71
2022/01/08 04:55:25;;;;;;;1.17;1.07;;;3.90;99.90;;;;;;5041977;28;20208;-72
2022/01/08 04:57:51;;;;;;;1.50;1.40;;;3.70;99.90;;;;;;5046648;28;20725;-71
2022/01/08 05:00:19;;;;;;;1.70;1.60;;;3.50;99.90;;;;;;5045733;28;20463;-71
2022/01/08 05:02:45;;;;;;;1.77;1.60;;;3.40;99.90;;;;;;5027561;28;20261;-71
2022/01/08 05:05:11;;;;;;;1.67;1.30;;;3.80;99.90;;;;;;5043008;28;20509;-70
2022/01/08 05:07:37;;;;;;;1.43;1.33;;;3.30;99.90;;;;;;5053796;28;20242;-70
2022/01/08 05:10:04;;;;;;;2.03;1.37;;;3.30;99.90;;;;;;5050288;28;20168;-71
2022/01/08 05:12:30;;;;;;;1.53;1.43;;;3.20;99.90;;;;;;5031656;28;20416;-71
2022/01/08 05:14:56;;;;;;;2.63;2.40;;;3.10;99.90;;;;;;5037760;28;20493;-71
2022/01/08 05:17:29;;;;;;;2.50;2.30;;;3.10;99.90;;;;;;5051029;28;20393;-71
2022/01/08 05:19:57;;;;;;;2.63;2.43;;;3.10;99.90;;;;;;5031243;28;20897;-71
2022/01/08 05:22:29;;;;;;;3.57;3.10;;;3.00;99.90;;;;;;5030568;28;20413;-71
2022/01/08 05:24:55;;;;;;;3.47;3.17;;;3.20;99.90;;;;;;5042196;28;20554;-71
2022/01/08 05:27:21;;;;;;;5.43;4.53;;;2.90;99.90;;;;;;5030745;28;20557;-71
2022/01/08 05:29:49;;;;;;;6.97;4.50;;;3.30;99.90;;;;;;5046500;28;20966;-71
2022/01/08 05:32:16;;;;;;;5.40;4.70;;;2.80;99.90;;;;;;5049177;28;20169;-71
2022/01/08 05:34:46;;;;;;;6.20;4.90;;;2.80;99.90;;;;;;5054514;28;20893;-71
2022/01/08 05:37:12;;;;;;;3.00;2.70;;;3.10;99.90;;;;;;5057907;28;20546;-71
2022/01/08 05:39:38;;;;;;;4.67;4.03;;;2.70;99.90;;;;;;5029506;28;20452;-71
2022/01/08 05:42:04;;;;;;;5.00;4.10;;;2.70;99.90;;;;;;5028982;28;20417;-72
2022/01/08 05:44:29;;;;;;;3.57;3.07;;;2.80;99.90;;;;;;5030388;28;20524;-71
2022/01/08 05:46:55;;;;;;;5.67;4.30;;;2.80;99.90;;;;;;5030395;28;20589;-71
2022/01/08 05:49:21;;;;;;;5.40;4.43;;;2.80;99.90;;;;;;5040292;28;20496;-71
2022/01/08 05:51:46;;;;;;;5.43;3.90;;;2.80;99.90;;;;;;5050026;28;20180;-71
2022/01/08 05:54:12;;;;;;;5.00;4.40;;;2.80;99.90;;;;;;5041977;28;20255;-71
2022/01/08 05:56:37;;;;;;;4.90;3.93;;;2.80;99.90;;;;;;5049213;28;20473;-71
2022/01/08 05:59:03;;;;;;;4.17;3.67;;;2.90;99.90;;;;;;5042738;28;20263;-71
2022/01/08 06:01:29;;;;;;;3.80;3.50;;;2.90;99.90;;;;;;5032206;28;20223;-71
2022/01/08 06:03:54;;;;;;;3.13;2.80;;;3.00;99.90;;;;;;5034540;28;20264;-71
2022/01/08 06:06:20;;;;;;;2.17;2.00;;;3.00;99.90;;;;;;5063306;28;20272;-71
2022/01/08 06:08:46;;;;;;;4.03;3.17;;;2.90;99.90;;;;;;5046492;28;20193;-71
2022/01/08 06:11:11;;;;;;;3.50;3.00;;;2.90;99.90;;;;;;5031540;28;20178;-71
2022/01/08 06:13:36;;;;;;;2.90;2.70;;;3.00;99.90;;;;;;5049934;28;20231;-71
2022/01/08 16:01:16;;;;;;;6.93;3.88;;;4.30;99.90;;;;;;5127362;27;1182333;-70
2022/01/08 16:03:42;;;;;;;5.00;3.67;;;4.20;99.90;;;;;;5142670;27;20181;-70
2022/01/08 16:06:08;;;;;;;3.80;3.33;;;4.40;99.90;;;;;;5128555;27;20206;-70
2022/01/08 16:08:33;;;;;;;2.83;2.30;;;4.50;99.90;;;;;;5125125;27;20886;-70
2022/01/08 16:10:59;;;;;;;4.43;2.30;;;4.60;99.90;;;;;;5125435;27;20170;-70
2022/01/08 16:13:24;;;;;;;2.80;2.00;;;4.80;99.90;;;;;;5124598;28;20421;-72
2022/01/08 16:15:53;;;;;;;3.60;2.50;;;4.90;99.90;;;;;;5125945;27;20432;-72
2022/01/08 16:18:19;;;;;;;3.70;2.20;;;5.00;99.90;;;;;;5125596;27;20277;-70
2022/01/08 16:20:46;;;;;;;3.10;2.67;;;5.20;99.90;;;;;;5124661;28;20893;-71
2022/01/08 16:23:13;;;;;;;4.57;2.30;;;5.00;99.90;;;;;;5118977;27;20291;-70
2022/01/08 16:25:42;;;;;;;2.63;2.33;;;5.20;99.90;;;;;;5123864;28;20444;-70
2022/01/08 16:28:11;;;;;;;4.30;2.40;;;5.40;99.90;;;;;;5125509;28;20408;-70
2022/01/08 16:30:40;;;;;;;3.73;2.70;;;;;;;;;;5105164;28;20410;-70
2022/01/08 16:33:09;;;;;;;2.57;2.37;;;;;;;;;;5121557;28;20428;-70
2022/01/08 16:35:34;;;;;;;4.50;2.90;;;;;;;;;;5106634;28;20436;-70
2022/01/08 16:38:00;;;;;;;3.83;2.93;;;;;;;;;;5124505;27;20424;-70
2022/01/08 16:40:26;;;;;;;4.97;2.90;;;;;;;;;;5125563;27;20202;-70
2022/01/08 16:42:52;;;;;;;8.67;3.20;;;;;;;;;;5124629;27;20171;-70
2022/01/08 16:45:18;;;;;;;4.00;2.90;;;5.20;99.90;;;;;;5124462;27;20194;-70
2022/01/08 16:47:43;;;;;;;128.10;68.87;;;5.20;99.90;;;;;;5125377;27;20183;-70
2022/01/08 16:50:09;;;;;;;176.33;91.70;;;5.20;99.90;;;;;;5124309;28;20190;-70
2022/01/08 16:52:34;;;;;;;57.87;35.93;;;5.20;99.90;;;;;;5123840;28;20170;-70
2022/01/08 16:55:00;;;;;;;9.80;7.80;;;5.30;99.90;;;;;;5121868;27;20414;-70
2022/01/08 16:57:26;;;;;;;18.97;14.37;;;5.20;99.90;;;;;;5104639;28;20181;-70
2022/01/08 16:59:51;;;;;;;23.57;16.30;;;5.30;99.90;;;;;;5106399;28;20521;-70
2022/01/08 17:02:17;;;;;;;51.47;34.13;;;5.20;99.90;;;;;;5123458;27;20975;-70
2022/01/08 17:04:42;;;;;;;12.80;9.50;;;5.20;99.90;;;;;;5124408;27;20297;-70
2022/01/08 17:07:08;;;;;;;12.83;9.33;;;5.20;99.90;;;;;;5120893;27;20186;-70
2022/01/08 17:09:34;;;;;;;4.70;3.80;;;;;;;;;;5124215;28;20202;-70
2022/01/08 17:12:02;;;;;;;6.67;5.00;;;5.20;99.90;;;;;;5113935;28;20179;-70
2022/01/08 17:14:28;;;;;;;9.73;6.33;;;;;;;;;;5110770;28;20493;-70
2022/01/08 17:16:55;;;;;;;10.20;7.80;;;;;;;;;;5110543;28;20497;-70
2022/01/08 17:19:21;;;;;;;7.30;5.47;;;5.20;99.90;;;;;;5110984;28;20551;-71
2022/01/08 17:21:48;;;;;;;14.13;9.17;;;5.00;99.90;;;;;;5110024;28;20417;-70
2022/01/08 17:24:14;;;;;;;29.90;19.53;;;5.40;99.90;;;;;;5109801;28;20520;-70
2022/01/08 17:26:40;;;;;;;9.40;6.70;;;5.10;99.90;;;;;;5109648;28;20483;-70
2022/01/08 17:29:05;;;;;;;13.43;9.73;;;5.10;99.90;;;;;;5111524;28;20421;-70
2022/01/08 17:31:32;;;;;;;7.57;5.50;;;;;;;;;;5110201;28;20424;-70
2022/01/08 17:33:57;;;;;;;4.80;3.57;;;;;;;;;;5110467;28;20182;-70
2022/01/08 17:36:23;;;;;;;4.50;3.30;;;;;;;;;;5090871;28;20436;-70
2022/01/08 17:38:50;;;;;;;9.83;3.80;;;;;;;;;;5109994;28;20255;-70
2022/01/08 17:41:16;;;;;;;6.10;4.07;;;5.00;99.90;;;;;;5091961;28;20441;-71
2022/01/08 17:43:42;;;;;;;13.87;8.20;;;;;;;;;;5110147;28;20994;-70
2022/01/08 17:46:08;;;;;;;4.43;2.80;;;5.00;99.90;;;;;;5110186;28;20452;-70
2022/01/08 17:48:34;;;;;;;23.90;12.90;;;5.30;99.90;;;;;;5092171;28;20175;-71
2022/01/08 17:51:00;;;;;;;6.00;3.87;;;;;;;;;;5109800;28;20234;-70
2022/01/08 17:53:26;;;;;;;9.27;6.23;;;;;;;;;;5110054;28;20175;-71
2022/01/08 17:55:52;;;;;;;6.60;5.70;;;;;;;;;;5090782;28;20511;-70
2022/01/08 17:58:17;;;;;;;6.90;5.30;;;5.00;99.90;;;;;;5109876;28;20510;-70
2022/01/08 18:00:44;;;;;;;3.47;2.30;;;5.20;99.90;;;;;;5109274;28;20581;-70
2022/01/08 18:03:10;;;;;;;4.37;2.70;;;;;;;;;;5110287;28;20228;-70
2022/01/08 18:05:36;;;;;;;5.23;2.57;;;;;;;;;;5090872;28;20440;-69
2022/01/08 18:08:01;;;;;;;8.03;5.50;;;5.00;99.90;;;;;;5109415;28;20265;-70
2022/01/08 18:10:27;;;;;;;2.63;2.37;;;5.00;99.90;;;;;;5091834;28;20448;-70
2022/01/08 18:12:53;;;;;;;3.83;2.70;;;5.10;99.90;;;;;;5108829;28;20233;-70
2022/01/08 18:15:18;;;;;;;3.43;2.27;;;5.10;99.90;;;;;;5109811;28;20274;-71
2022/01/08 18:17:44;;;;;;;2.90;2.50;;;5.10;99.90;;;;;;5109984;28;20240;-70
2022/01/08 18:20:18;;;;;;;2.60;2.10;;;5.10;99.90;;;;;;5109502;28;20230;-69
2022/01/08 18:22:44;;;;;;;9.20;7.53;;;5.00;99.90;;;;;;5089120;28;20262;-70
2022/01/08 18:25:12;;;;;;;4.40;1.93;;;5.10;99.90;;;;;;5109084;28;20536;-70
2022/01/08 18:27:42;;;;;;;3.77;2.10;;;;;;;;;;5109354;28;20251;-70
2022/01/08 18:30:08;;;;;;;7.27;5.93;;;5.00;99.90;;;;;;5093577;28;20444;-70
2022/01/08 18:32:34;;;;;;;4.77;4.37;;;5.00;99.90;;;;;;5090037;28;20436;-70
2022/01/08 18:34:59;;;;;;;5.77;3.07;;;5.00;99.90;;;;;;5090274;28;20803;-71
2022/01/08 18:37:25;;;;;;;5.77;4.47;;;4.90;99.90;;;;;;5108398;28;20183;-70
2022/01/08 18:39:51;;;;;;;7.90;5.70;;;4.90;99.90;;;;;;5109519;28;20187;-70
2022/01/08 18:42:17;;;;;;;10.70;8.63;;;;;;;;;;5108337;28;20995;-70
2022/01/08 18:44:42;;;;;;;3.47;2.00;;;4.80;99.90;;;;;;5109370;28;20640;-70
2022/01/08 18:47:08;;;;;;;15.37;10.10;;;4.80;99.90;;;;;;5109081;28;20175;-69
2022/01/08 18:49:35;;;;;;;4.83;2.53;;;;;;;;;;5090832;28;20312;-71
2022/01/08 18:52:01;;;;;;;4.07;3.23;;;;;;;;;;5108159;28;20163;-70
2022/01/08 18:54:27;;;;;;;21.53;14.33;;;4.90;99.90;;;;;;5107946;28;20420;-69
2022/01/08 18:56:53;;;;;;;10.67;8.33;;;4.90;99.90;;;;;;5108648;28;20436;-70
2022/01/08 18:59:20;;;;;;;3.83;2.40;;;5.00;99.90;;;;;;5109455;28;20531;-70
2022/01/08 19:01:45;;;;;;;4.93;2.57;;;5.00;99.90;;;;;;5108480;28;20436;-69
2022/01/08 19:04:12;;;;;;;19.40;11.50;;;4.90;99.90;;;;;;5108959;28;20401;-70
2022/01/08 19:06:37;;;;;;;6.57;2.30;;;5.00;99.90;;;;;;5107329;28;20191;-70
2022/01/08 19:09:03;;;;;;;15.90;9.47;;;5.00;99.90;;;;;;5107975;28;20477;-70
2022/01/08 19:11:28;;;;;;;6.43;1.80;;;5.00;99.90;;;;;;5107281;28;20191;-69
2022/01/08 19:13:54;;;;;;;2.70;2.20;;;4.90;99.90;;;;;;5108051;28;20175;-71
2022/01/08 19:16:20;;;;;;;7.17;2.70;;;4.80;99.90;;;;;;5108178;28;20238;-70
2022/01/08 19:18:46;;;;;;;3.00;2.70;;;4.80;99.90;;;;;;5108625;28;20252;-70
2022/01/08 19:21:12;;;;;;;51.70;30.63;;;4.80;99.90;;;;;;5108105;28;20683;-70
2022/01/08 19:23:38;;;;;;;29.37;18.47;;;5.20;99.90;;;;;;5107828;28;20417;-70
2022/01/08 19:26:06;;;;;;;13.40;8.80;;;4.80;99.90;;;;;;5107819;28;20248;-70
2022/01/08 19:28:31;;;;;;;9.77;5.53;;;4.80;99.90;;;;;;5108448;28;20178;-70
2022/01/08 19:30:57;;;;;;;15.40;10.43;;;4.80;99.90;;;;;;5108360;28;20509;-70
2022/01/08 19:33:22;;;;;;;16.57;8.47;;;;;;;;;;5108376;28;20179;-71
2022/01/08 19:35:48;;;;;;;15.77;14.07;;;4.90;99.90;;;;;;5106863;28;20230;-70
2022/01/08 19:38:14;;;;;;;10.77;9.20;;;;;;;;;;5089311;28;20182;-70
2022/01/08 19:40:42;;;;;;;13.17;9.80;;;4.80;99.90;;;;;;5107841;28;21036;-70
2022/01/08 19:43:08;;;;;;;13.67;10.33;;;4.80;99.90;;;;;;5089675;28;20195;-70
2022/01/08 19:45:34;;;;;;;34.80;21.07;;;;;;;;;;5108168;28;20886;-71
2022/01/08 19:48:00;;;;;;;8.03;4.80;;;;;;;;;;5089736;28;20713;-71
2022/01/08 19:50:26;;;;;;;119.43;67.47;;;;;;;;;;5089414;28;20612;-71
2022/01/08 19:52:51;;;;;;;31.70;21.90;;;4.90;99.90;;;;;;5106958;28;20519;-70
2022/01/08 19:55:17;;;;;;;20.07;13.80;;;4.80;99.90;;;;;;5107869;28;20456;-71
2022/01/08 19:57:42;;;;;;;18.47;12.27;;;4.80;99.90;;;;;;5107687;28;20179;-68
2022/01/08 20:00:10;;;;;;;12.43;9.77;;;4.80;99.90;;;;;;5107802;28;20233;-71
2022/01/08 20:02:36;;;;;;;13.77;8.10;;;;;;;;;;5108258;28;20354;-70
2022/01/08 20:05:03;;;;;;;15.43;11.80;;;4.70;99.90;;;;;;5089329;28;20452;-69
2022/01/08 20:07:29;;;;;;;21.00;17.43;;;4.70;99.90;;;;;;5106631;28;20432;-70
2022/01/08 20:09:56;;;;;;;10.00;7.50;;;4.70;99.90;;;;;;5108286;28;20440;-70
2022/01/08 20:12:22;;;;;;;25.90;17.10;;;5.00;99.90;;;;;;5107512;28;20548;-71
2022/01/08 20:14:48;;;;;;;17.03;11.80;;;4.80;99.90;;;;;;5088529;28;20830;-70
2022/01/08 20:17:14;;;;;;;6.43;3.90;;;4.80;99.90;;;;;;5107952;28;20408;-69
2022/01/08 20:19:40;;;;;;;3.97;2.90;;;4.80;99.90;;;;;;5106231;28;20187;-70
2022/01/08 20:22:06;;;;;;;19.77;11.10;;;4.90;99.90;;;;;;5107133;28;20425;-70
2022/01/08 20:24:31;;;;;;;26.50;18.20;;;4.90;99.90;;;;;;5107368;28;20287;-69
2022/01/08 20:26:57;;;;;;;5.57;3.93;;;4.90;99.90;;;;;;5107732;28;20437;-70
2022/01/08 20:29:24;;;;;;;12.97;8.30;;;5.00;99.90;;;;;;5107809;28;20190;-70
2022/01/08 20:31:51;;;;;;;6.97;4.10;;;;;;;;;;5107491;28;20190;-70
2022/01/08 20:34:16;;;;;;;12.90;9.90;;;5.10;99.90;;;;;;5105085;28;20782;-68
2022/01/08 20:36:42;;;;;;;6.43;4.50;;;5.00;99.90;;;;;;5106786;28;20524;-70
2022/01/08 20:39:07;;;;;;;13.10;8.67;;;5.00;99.90;;;;;;5107389;28;20295;-70
2022/01/08 20:41:33;;;;;;;8.10;5.83;;;;;;;;;;5107309;28;20224;-70
2022/01/08 20:43:59;;;;;;;10.53;6.00;;;5.00;99.90;;;;;;5107660;28;20316;-69
2022/01/08 20:46:25;;;;;;;13.43;10.37;;;;;;;;;;5108186;28;20447;-70
2022/01/08 20:48:50;;;;;;;6.73;4.07;;;4.90;99.90;;;;;;5111662;28;20220;-69
2022/01/08 20:51:16;;;;;;;14.53;10.50;;;;;;;;;;5110546;28;20421;-70
2022/01/08 20:53:42;;;;;;;33.27;16.47;;;4.90;99.90;;;;;;5110629;28;20198;-70
2022/01/08 20:56:08;;;;;;;14.20;8.80;;;4.90;99.90;;;;;;5110298;28;20444;-70
2022/01/08 20:58:35;;;;;;;20.30;10.00;;;5.00;99.90;;;;;;5111447;28;20421;-70
2022/01/08 21:01:02;;;;;;;133.97;68.23;;;4.80;99.90;;;;;;5105031;28;20207;-70
2022/01/08 21:03:27;;;;;;;47.70;27.87;;;4.80;99.90;;;;;;5110727;28;20440;-70
2022/01/08 21:05:54;;;;;;;213.50;113.00;;;4.90;99.90;;;;;;5109979;28;20471;-69
2022/01/08 21:08:21;;;;;;;26.90;17.10;;;4.90;99.90;;;;;;5110420;28;20239;-70
2022/01/08 21:10:47;;;;;;;14.33;9.70;;;4.90;99.90;;;;;;5111223;28;20466;-71
2022/01/08 21:13:16;;;;;;;10.00;7.37;;;5.40;99.90;;;;;;5111016;28;20431;-70
2022/01/08 21:15:42;;;;;;;7.90;5.00;;;4.90;99.90;;;;;;5110181;28;20453;-69
2022/01/08 21:18:08;;;;;;;9.33;5.20;;;4.90;99.90;;;;;;5092868;28;20434;-71
2022/01/08 21:20:34;;;;;;;16.50;12.97;;;5.20;99.90;;;;;;5111390;28;20268;-70
2022/01/08 21:22:59;;;;;;;7.80;5.20;;;4.90;99.90;;;;;;5091413;28;20278;-70
2022/01/08 21:25:25;;;;;;;6.50;4.50;;;4.90;99.90;;;;;;5092553;28;20509;-69
2022/01/08 21:27:51;;;;;;;4.73;3.50;;;;;;;;;;5110598;28;20220;-69
2022/01/08 21:30:17;;;;;;;5.87;4.90;;;;;;;;;;5091884;28;20265;-69
2022/01/08 21:32:43;;;;;;;7.73;5.57;;;4.90;99.90;;;;;;5110916;28;20421;-69
2022/01/08 21:35:11;;;;;;;12.40;7.37;;;4.80;99.90;;;;;;5110946;28;20453;-69
2022/01/08 21:37:38;;;;;;;12.73;7.23;;;4.90;99.90;;;;;;5109634;28;20540;-69
2022/01/08 21:40:07;;;;;;;9.93;6.43;;;4.80;99.90;;;;;;5110772;28;20456;-69
2022/01/08 21:42:34;;;;;;;7.00;3.90;;;4.80;99.90;;;;;;5110071;28;20937;-70
2022/01/08 21:45:00;;;;;;;4.57;3.10;;;4.80;99.90;;;;;;5110846;28;20449;-68
2022/01/08 21:47:26;;;;;;;5.60;3.47;;;4.80;99.90;;;;;;5110242;28;20429;-69
2022/01/08 21:49:52;;;;;;;4.37;2.83;;;4.80;99.90;;;;;;5110642;28;20425;-70
2022/01/08 21:52:20;;;;;;;6.10;3.07;;;5.00;99.90;;;;;;5109510;28;20190;-69
2022/01/08 21:54:45;;;;;;;4.00;3.17;;;4.90;99.90;;;;;;5109827;28;20445;-68
2022/01/08 21:57:11;;;;;;;3.97;2.80;;;;;;;;;;5109736;28;20516;-69
2022/01/08 21:59:37;;;;;;;4.07;2.60;;;4.80;99.90;;;;;;5109850;28;20202;-68
2022/01/08 22:02:03;;;;;;;4.63;2.47;;;2.80;99.90;;;;;;5110196;28;20179;-68
2022/01/08 22:04:28;;;;;;;3.87;3.00;;;;;;;;;;5110319;28;20573;-69
2022/01/08 22:06:55;;;;;;;5.40;3.47;;;4.80;99.90;;;;;;5110119;28;20190;-69
2022/01/08 22:09:21;;;;;;;9.63;3.63;;;5.00;99.90;;;;;;5109328;28;20621;-69
2022/01/08 22:11:46;;;;;;;8.13;4.10;;;5.10;99.90;;;;;;5109209;28;20425;-70
2022/01/08 22:14:12;;;;;;;11.20;5.33;;;4.80;99.90;;;;;;5109216;28;20321;-67
2022/01/08 22:16:38;;;;;;;4.83;3.30;;;;;;;;;;5109772;28;20250;-69
2022/01/08 22:19:04;;;;;;;4.00;2.60;;;;;;;;;;5109846;28;20544;-69
2022/01/08 22:21:30;;;;;;;4.40;3.50;;;4.90;99.90;;;;;;5109407;28;20553;-69
2022/01/08 22:23:55;;;;;;;5.03;2.90;;;5.10;99.90;;;;;;5109257;28;20443;-69
2022/01/08 22:26:21;;;;;;;3.97;2.40;;;;;;;;;;5109565;28;20195;-69
2022/01/08 22:28:47;;;;;;;4.70;2.23;;;5.00;99.90;;;;;;5109796;28;20209;-69
2022/01/08 22:31:13;;;;;;;2.93;2.23;;;5.00;99.90;;;;;;5109570;28;20433;-69
2022/01/08 22:33:38;;;;;;;2.83;2.40;;;5.10;99.90;;;;;;5108937;28;20582;-68
2022/01/08 22:36:04;;;;;;;3.10;2.30;;;5.10;99.90;;;;;;5108473;28;20677;-69
2022/01/08 22:38:30;;;;;;;2.93;2.10;;;5.50;99.90;;;;;;5109203;28;20175;-68
2022/01/08 22:40:55;;;;;;;3.93;2.50;;;5.20;99.90;;;;;;5108970;28;20315;-69
2022/01/08 22:43:21;;;;;;;4.20;2.53;;;5.10;99.90;;;;;;5090827;28;20213;-70
2022/01/08 22:45:47;;;;;;;2.27;1.60;;;5.10;99.90;;;;;;5090497;28;20611;-68
2022/01/08 22:48:12;;;;;;;2.60;2.10;;;5.10;99.90;;;;;;5109139;28;20167;-69
2022/01/08 22:50:38;;;;;;;3.57;2.33;;;5.00;99.90;;;;;;5090493;28;20288;-69
2022/01/08 22:53:04;;;;;;;2.57;1.90;;;;;;;;;;5108669;28;20251;-69
2022/01/08 22:55:30;;;;;;;3.40;2.30;;;5.00;99.90;;;;;;5109045;28;20206;-70
2022/01/08 22:57:56;;;;;;;3.60;2.10;;;;;;;;;;5108588;28;20409;-70
2022/01/08 23:00:28;;;;;;;2.63;2.27;;;4.90;99.90;;;;;;5108955;28;20202;-70
2022/01/08 23:02:54;;;;;;;7.20;3.00;;;5.10;99.90;;;;;;5090419;28;20445;-70
2022/01/08 23:05:21;;;;;;;5.27;2.20;;;4.60;99.90;;;;;;5109019;28;20440;-70
2022/01/08 23:07:47;;;;;;;3.30;2.40;;;4.80;99.90;;;;;;5107413;28;20432;-70